createdAt,value
2022-11-28T00:01:17.626Z,102189.97
2022-11-28T00:05:19.521Z,102181.22
2022-11-28T00:09:21.095Z,102175.97
2022-11-28T00:13:20.613Z,102185.53
2022-11-28T00:17:19.933Z,102183.13
2022-11-28T00:21:21.618Z,102187.75
2022-11-28T00:25:21.476Z,102183.84
2022-11-28T00:29:21.095Z,102185.50
2022-11-28T00:33:20.026Z,102120.06
2022-11-28T00:37:21.554Z,102172.84
2022-11-28T00:41:23.423Z,102182.16
2022-11-28T00:45:22.639Z,102173.63
2022-11-28T00:49:22.193Z,102163.72
2022-11-28T00:53:23.853Z,102146.97
2022-11-28T00:57:23.407Z,102170.81
2022-11-28T01:01:23.608Z,102166.38
2022-11-28T01:05:23.213Z,102166.59
2022-11-28T01:09:25.468Z,102132.59
2022-11-28T01:13:25.060Z,102161.81
2022-11-28T01:17:24.306Z,102154.53
2022-11-28T01:21:23.991Z,102158.22
2022-11-28T01:25:25.821Z,102158.06
2022-11-28T01:29:25.515Z,102156.47
2022-11-28T01:33:24.777Z,102155.50
2022-11-28T01:37:24.353Z,102143.72
2022-11-28T01:41:27.225Z,102110.88
2022-11-28T01:45:29.951Z,102135.06
2022-11-28T01:49:33.667Z,102134.41
2022-11-28T01:53:36.748Z,102132.34
2022-11-28T01:57:38.727Z,102135.41
2022-11-28T02:01:39.203Z,102119.94
2022-11-28T02:05:39.093Z,102130.31
2022-11-28T02:09:38.142Z,102112.19
2022-11-28T02:13:43.967Z,102105.78
2022-11-28T02:17:58.348Z,102127.50
2022-11-28T02:22:02.935Z,102105.56
2022-11-28T02:26:42.761Z,102085.94
2022-11-28T02:30:56.409Z,102103.63
2022-11-28T02:35:04.859Z,102101.59
2022-11-28T02:39:13.447Z,102134.63
2022-11-28T02:43:22.192Z,102119.16
2022-11-28T02:47:28.325Z,102133.34
2022-11-28T02:51:34.836Z,102134.22
2022-11-28T02:55:34.613Z,102113.00
2022-11-28T02:59:46.369Z,102128.31
2022-11-28T03:04:01.113Z,102145.31
2022-11-28T03:08:12.695Z,102130.66
2022-11-28T03:12:23.058Z,102143.13
2022-11-28T03:16:30.437Z,102141.72
2022-11-28T03:20:38.482Z,102141.28
2022-11-28T03:24:46.262Z,102141.50
2022-11-28T03:28:53.928Z,102138.25
2022-11-28T03:32:56.858Z,102108.38
2022-11-28T03:37:01.925Z,102138.97
2022-11-28T03:41:09.712Z,102137.22
2022-11-28T03:45:14.533Z,102135.81
2022-11-28T03:49:17.908Z,102141.50
2022-11-28T03:53:23.915Z,102128.00
2022-11-28T03:57:33.540Z,102139.31
2022-11-28T04:01:36.670Z,102150.41
2022-11-28T04:05:46.512Z,102145.97
2022-11-28T04:09:49.806Z,102136.38
2022-11-28T04:13:58.394Z,102149.28
2022-11-28T04:18:02.800Z,102151.63
2022-11-28T04:22:06.670Z,102108.78
2022-11-28T04:26:12.625Z,102141.56
2022-11-28T04:30:15.486Z,102166.59
2022-11-28T04:34:19.195Z,102164.84
2022-11-28T04:38:19.610Z,102156.50
2022-11-28T04:42:22.672Z,102160.78
2022-11-28T04:46:27.899Z,102165.66
2022-11-28T04:50:33.054Z,102162.63
2022-11-28T04:54:40.136Z,102130.97
2022-11-28T04:58:43.992Z,102159.47
2022-11-28T05:02:48.180Z,102161.41
2022-11-28T05:06:47.905Z,102167.09
2022-11-28T05:10:48.469Z,102147.91
2022-11-28T05:14:48.162Z,102141.16
2022-11-28T05:18:50.200Z,102170.06
2022-11-28T05:22:49.778Z,102175.59
2022-11-28T05:26:49.450Z,102177.28
2022-11-28T05:30:57.927Z,102188.88
2022-11-28T05:34:59.812Z,102183.13
2022-11-28T05:38:59.405Z,102195.84
2022-11-28T05:42:58.441Z,102194.56
2022-11-28T05:46:57.953Z,102190.59
2022-11-28T05:50:59.353Z,102195.59
2022-11-28T05:54:59.630Z,102191.63
2022-11-28T05:58:59.558Z,102184.66
2022-11-28T06:03:02.367Z,102190.34
2022-11-28T06:07:04.096Z,102185.34
2022-11-28T06:11:03.683Z,102207.69
2022-11-28T06:15:02.963Z,102187.00
2022-11-28T06:19:04.523Z,102216.84
2022-11-28T06:23:06.833Z,102196.25
2022-11-28T06:27:06.670Z,102174.97
2022-11-28T06:31:06.500Z,102211.72
2022-11-28T06:35:06.416Z,102191.97
2022-11-28T06:39:12.615Z,102206.53
2022-11-28T06:43:12.264Z,102204.59
2022-11-28T06:47:11.720Z,102202.88
2022-11-28T06:51:11.549Z,102156.16
2022-11-28T06:55:13.424Z,102199.41
2022-11-28T06:59:14.080Z,102176.81
2022-11-28T07:03:14.190Z,102193.34
2022-11-28T07:07:16.685Z,102168.25
2022-11-28T07:11:20.632Z,102191.47
2022-11-28T07:15:20.293Z,102183.19
2022-11-28T07:19:22.769Z,102192.28
2022-11-28T07:23:22.384Z,102184.00
2022-11-28T07:27:23.843Z,102185.47
2022-11-28T07:31:31.219Z,102193.91
2022-11-28T07:35:30.314Z,102184.56
2022-11-28T07:39:30.199Z,102157.72
2022-11-28T07:43:32.094Z,102180.22
2022-11-28T07:47:31.603Z,102176.06
2022-11-28T07:51:32.152Z,102173.69
2022-11-28T07:55:31.678Z,102177.59
2022-11-28T07:59:33.342Z,102168.91
2022-11-28T08:03:32.825Z,102153.22
2022-11-28T08:07:37.863Z,102143.72
2022-11-28T08:11:50.947Z,102152.41
2022-11-28T08:15:52.700Z,102147.56
2022-11-28T08:19:52.253Z,102111.78
2022-11-28T08:23:52.555Z,102119.16
2022-11-28T08:27:52.177Z,102143.44
2022-11-28T08:31:53.608Z,102131.38
2022-11-28T08:35:53.549Z,102139.53
2022-11-28T08:39:53.166Z,102144.41
2022-11-28T08:43:52.496Z,102143.53
2022-11-28T08:47:54.547Z,102142.19
2022-11-28T08:51:54.100Z,102143.84
2022-11-28T08:55:53.714Z,102101.16
2022-11-28T08:59:52.984Z,102117.28
2022-11-28T09:03:55.867Z,102127.03
2022-11-28T09:07:56.718Z,102107.78
2022-11-28T09:11:56.346Z,102131.97
2022-11-28T09:15:55.431Z,102118.63
2022-11-28T09:19:57.257Z,102087.91
2022-11-28T09:23:58.182Z,102102.63
2022-11-28T09:27:57.679Z,102107.44
2022-11-28T09:31:56.785Z,102064.94
2022-11-28T09:35:58.286Z,102079.94
2022-11-28T09:40:12.506Z,102094.38
2022-11-28T09:44:20.845Z,102063.13
2022-11-28T09:48:28.262Z,102087.13
2022-11-28T09:52:35.833Z,102080.06
2022-11-28T09:56:35.576Z,102057.03
2022-11-28T10:00:40.041Z,102063.44
2022-11-28T10:04:46.565Z,102074.00
2022-11-28T10:09:10.016Z,102038.13
2022-11-28T10:13:17.041Z,102050.63
2022-11-28T10:17:26.848Z,102025.91
2022-11-28T10:21:32.737Z,102024.50
2022-11-28T10:25:37.364Z,102029.53
2022-11-28T10:29:58.301Z,102034.72
2022-11-28T10:34:02.843Z,102027.38
2022-11-28T10:38:02.550Z,102025.78
2022-11-28T10:42:15.846Z,101999.34
2022-11-28T10:46:37.650Z,102026.38
2022-11-28T10:50:44.872Z,102018.94
2022-11-28T10:55:15.654Z,102013.81
2022-11-28T10:59:30.753Z,102010.66
2022-11-28T11:03:32.567Z,101987.91
2022-11-28T11:07:33.877Z,102001.09
2022-11-28T11:11:39.132Z,102002.66
2022-11-28T11:15:40.918Z,102000.41
2022-11-28T11:19:41.878Z,101979.47
2022-11-28T11:23:41.605Z,101996.06
2022-11-28T11:27:50.116Z,101988.13
2022-11-28T11:31:55.106Z,101957.53
2022-11-28T11:35:54.606Z,101951.06
2022-11-28T11:39:55.243Z,101947.44
2022-11-28T11:43:54.303Z,101960.75
2022-11-28T11:47:56.063Z,101971.72
2022-11-28T11:51:58.569Z,101972.97
2022-11-28T11:56:02.289Z,101952.88
2022-11-28T12:00:08.709Z,101944.03
2022-11-28T12:04:43.941Z,101967.53
2022-11-28T12:08:46.037Z,101952.06
2022-11-28T12:12:45.552Z,101973.88
2022-11-28T12:16:54.538Z,101955.31
2022-11-28T12:21:12.386Z,101968.13
2022-11-28T12:25:24.447Z,101969.81
2022-11-28T12:29:32.921Z,101955.94
2022-11-28T12:33:47.268Z,101964.03
2022-11-28T12:38:13.064Z,101952.22
2022-11-28T12:42:24.693Z,101956.53
2022-11-28T12:46:36.977Z,101951.44
2022-11-28T12:50:40.452Z,101946.44
2022-11-28T12:55:09.822Z,101946.53
2022-11-28T12:59:25.829Z,101948.03
2022-11-28T13:03:40.658Z,101947.28
2022-11-28T13:07:50.686Z,101949.41
2022-11-28T13:12:06.674Z,101934.66
2022-11-28T13:16:22.077Z,101969.34
2022-11-28T13:20:31.352Z,101963.44
2022-11-28T13:24:38.533Z,101967.06
2022-11-28T13:28:46.613Z,101965.22
2022-11-28T13:32:49.059Z,101960.56
2022-11-28T13:42:00.930Z,101980.59
2022-11-28T13:45:46.683Z,101972.31
2022-11-28T13:49:45.663Z,101967.19
2022-11-28T13:53:46.638Z,101966.31
2022-11-28T13:57:45.696Z,101976.22
2022-11-28T14:01:49.653Z,101970.88
2022-11-28T14:05:49.333Z,101981.69
2022-11-28T14:10:01.500Z,101985.03
2022-11-28T14:14:21.024Z,101958.88
2022-11-28T14:23:19.905Z,101957.75
2022-11-28T14:27:23.617Z,101955.28
2022-11-28T14:31:32.748Z,101935.81
2022-11-28T14:36:08.085Z,101962.38
2022-11-28T14:40:48.051Z,101980.13
2022-11-28T14:44:50.485Z,101981.66
2022-11-28T14:49:17.219Z,101986.34
2022-11-28T14:53:45.219Z,101983.16
2022-11-28T14:57:57.944Z,101994.50
2022-11-28T15:02:05.751Z,101990.78
2022-11-28T15:06:12.970Z,101981.38
2022-11-28T15:10:22.516Z,101976.97
2022-11-28T15:14:25.146Z,101982.94
2022-11-28T15:18:27.959Z,101981.69
2022-11-28T15:22:33.771Z,101985.84
2022-11-28T15:26:35.671Z,101988.59
2022-11-28T15:30:35.602Z,101956.81
2022-11-28T15:34:36.700Z,101991.56
2022-11-28T15:38:38.904Z,101991.28
2022-11-28T15:42:41.336Z,101981.28
2022-11-28T15:46:40.895Z,101958.19
2022-11-28T15:50:51.168Z,101978.25
2022-11-28T15:54:52.463Z,101992.19
2022-11-28T15:58:55.731Z,101986.56
2022-11-28T16:02:55.772Z,101990.78
2022-11-28T16:06:58.575Z,101993.16
2022-11-28T16:10:59.606Z,101990.69
2022-11-28T16:15:04.795Z,101990.84
2022-11-28T16:19:06.889Z,101999.38
2022-11-28T16:23:12.023Z,101973.13
2022-11-28T16:27:29.935Z,102001.66
2022-11-28T16:31:32.015Z,101998.78
2022-11-28T16:35:37.409Z,101980.34
2022-11-28T16:39:37.710Z,101999.91
2022-11-28T16:43:39.864Z,101991.75
2022-11-28T16:47:42.032Z,101990.88
2022-11-28T16:51:43.048Z,101971.06
2022-11-28T16:55:46.510Z,101971.63
2022-11-28T16:59:46.784Z,101956.97
2022-11-28T17:03:55.123Z,101994.03
2022-11-28T17:07:55.036Z,101989.41
2022-11-28T17:11:59.321Z,101989.50
2022-11-28T17:15:59.344Z,101990.72
2022-11-28T17:20:02.678Z,101981.75
2022-11-28T17:24:03.090Z,102002.59
2022-11-28T17:28:02.092Z,101984.50
2022-11-28T17:32:01.999Z,101994.34
2022-11-28T17:36:05.629Z,101988.94
2022-11-28T17:40:22.186Z,101954.09
2022-11-28T17:44:24.127Z,101968.88
2022-11-28T17:48:23.916Z,101987.88
2022-11-28T17:52:29.749Z,101958.28
2022-11-28T17:56:30.954Z,101970.34
2022-11-28T18:00:32.404Z,101977.38
2022-11-28T18:04:32.021Z,101977.78
2022-11-28T18:08:33.816Z,101978.34
2022-11-28T18:12:33.349Z,101966.38
2022-11-28T18:16:32.733Z,101959.66
2022-11-28T18:20:32.860Z,101978.81
2022-11-28T18:24:35.303Z,101945.66
2022-11-28T18:28:34.883Z,101957.72
2022-11-28T18:32:34.910Z,101970.81
2022-11-28T18:36:35.545Z,101974.81
2022-11-28T18:40:38.871Z,101972.56
2022-11-28T18:44:38.941Z,101963.59
2022-11-28T18:48:39.819Z,101949.28
2022-11-28T18:52:41.413Z,101963.03
2022-11-28T18:56:46.871Z,101934.22
2022-11-28T19:00:46.190Z,101947.91
2022-11-28T19:04:46.511Z,101968.22
2022-11-28T19:08:45.820Z,101978.31
2022-11-28T19:12:49.802Z,101946.47
2022-11-28T19:16:50.058Z,101976.78
2022-11-28T19:20:49.904Z,101948.91
2022-11-28T19:24:56.878Z,101959.31
2022-11-28T19:28:59.774Z,101973.81
2022-11-28T19:32:59.561Z,101950.91
2022-11-28T19:36:59.398Z,101971.44
2022-11-28T19:41:00.600Z,101968.06
2022-11-28T19:45:01.780Z,101973.16
2022-11-28T19:49:02.566Z,101963.56
2022-11-28T19:53:02.199Z,101972.44
2022-11-28T19:57:02.167Z,101967.41
2022-11-28T20:01:07.789Z,101968.81
2022-11-28T20:05:08.223Z,101957.72
2022-11-28T20:09:12.438Z,101958.50
2022-11-28T20:13:11.769Z,101940.69
2022-11-28T20:17:13.605Z,101963.56
2022-11-28T20:21:15.329Z,101898.69
2022-11-28T20:25:20.501Z,101963.84
2022-11-28T20:29:26.347Z,101952.03
2022-11-28T20:33:28.253Z,101933.91
2022-11-28T20:37:27.889Z,101929.06
2022-11-28T20:41:28.484Z,101928.25
2022-11-28T20:45:28.389Z,101955.66
2022-11-28T20:49:30.251Z,101900.66
2022-11-28T20:53:29.640Z,101931.34
2022-11-28T20:57:29.738Z,101966.13
2022-11-28T21:01:30.628Z,101937.72
2022-11-28T21:05:32.464Z,101962.41
2022-11-28T21:09:32.016Z,101962.72
2022-11-28T21:13:33.668Z,101962.41
2022-11-28T21:17:33.338Z,101953.34
2022-11-28T21:21:35.542Z,101954.66
2022-11-28T21:25:40.024Z,101966.69
2022-11-28T21:29:48.368Z,101969.78
2022-11-28T21:33:49.903Z,101934.41
2022-11-28T21:37:51.696Z,101979.69
2022-11-28T21:41:52.783Z,101968.94
2022-11-28T21:45:52.833Z,101929.06
2022-11-28T21:49:53.235Z,101969.28
2022-11-28T21:53:54.803Z,101972.09
2022-11-28T21:57:57.314Z,101952.25
2022-11-28T22:02:05.989Z,101965.88
2022-11-28T22:06:17.195Z,101922.13
2022-11-28T22:10:19.057Z,101947.09
2022-11-28T22:14:19.225Z,101950.00
2022-11-28T22:18:18.602Z,101936.84
2022-11-28T22:22:18.537Z,101960.28
2022-11-28T22:26:19.946Z,101918.34
2022-11-28T22:30:19.709Z,101937.00
2022-11-28T22:34:19.162Z,101934.28
2022-11-28T22:38:20.289Z,101944.47
2022-11-28T22:42:21.901Z,101946.50
2022-11-28T22:46:21.587Z,101920.84
2022-11-28T22:50:23.562Z,101938.63
2022-11-28T22:54:23.109Z,101934.28
2022-11-28T22:58:24.646Z,101927.63
2022-11-28T23:02:25.164Z,101923.34
2022-11-28T23:06:27.215Z,101920.69
2022-11-28T23:10:27.158Z,101931.44
2022-11-28T23:14:30.035Z,101932.56
2022-11-28T23:18:30.529Z,101925.19
2022-11-28T23:22:29.861Z,101896.19
2022-11-28T23:26:31.376Z,101919.41
2022-11-28T23:30:33.626Z,101910.81
2022-11-28T23:34:33.727Z,101904.34
2022-11-28T23:38:33.048Z,101897.31
2022-11-28T23:42:32.081Z,101914.91
2022-11-28T23:46:34.171Z,101858.47
2022-11-28T23:50:33.527Z,101915.13
2022-11-28T23:54:33.354Z,101903.88
2022-11-28T23:58:33.373Z,101889.09
